Time;durP1;ratioP1;P1;durP2;ratioP2;P2;SDS_P1;SDS_P2;PMS_P1;PMS_P2;Temp;Humidity;BMP_temperature;BMP_pressure;BME280_temperature;BME280_humidity;BME280_pressure;Samples;Min_cycle;Max_cycle;Signal;HPM_P1;HPM_P2
2022/06/17 00:01:36;;;;;;;2.78;1.20;;;19.10;90.30;;;;;;5034458;28;20042;-67
2022/06/17 00:04:02;;;;;;;4.80;1.73;;;19.10;90.30;;;;;;5040388;28;20374;-71
2022/06/17 00:06:38;;;;;;;6.65;1.83;;;19.10;90.30;;;;;;5036616;28;20099;-67
2022/06/17 00:09:06;;;;;;;4.32;1.70;;;19.10;90.20;;;;;;5036970;28;20045;-68
2022/06/17 00:11:33;;;;;;;7.65;2.92;;;19.10;90.20;;;;;;5020490;28;20029;-69
2022/06/17 00:13:59;;;;;;;3.05;1.73;;;19.10;90.20;;;;;;5040133;28;20136;-67
2022/06/17 00:16:26;;;;;;;3.78;1.40;;;19.00;90.30;;;;;;5020946;28;20475;-70
2022/06/17 00:18:52;;;;;;;6.00;1.60;;;19.00;90.30;;;;;;5039453;28;20029;-69
2022/06/17 00:21:42;;;;;;;6.60;1.63;;;19.10;90.30;;;;;;5038894;28;20460;-69
2022/06/17 00:24:18;;;;;;;8.23;1.38;;;19.00;90.50;;;;;;5031975;28;20040;-69
2022/06/17 00:26:44;;;;;;;2.90;1.70;;;19.00;91.20;;;;;;5036600;28;20111;-68
2022/06/17 00:29:12;;;;;;;6.38;1.83;;;18.90;91.40;;;;;;5039754;28;20052;-69
2022/06/17 00:31:38;;;;;;;5.25;1.73;;;18.80;91.80;;;;;;5020026;28;20053;-67
2022/06/17 00:34:04;;;;;;;7.90;1.98;;;18.70;92.20;;;;;;5040055;28;20043;-68
2022/06/17 00:36:30;;;;;;;3.03;1.17;;;18.70;92.00;;;;;;5038152;28;20045;-66
2022/06/17 00:38:55;;;;;;;4.97;1.88;;;18.60;92.30;;;;;;5041416;28;20032;-69
2022/06/17 00:41:32;;;;;;;4.47;1.20;;;18.50;92.80;;;;;;5020895;28;20161;-69
2022/06/17 00:44:00;;;;;;;2.55;1.27;;;18.40;93.10;;;;;;5036964;28;20359;-68
2022/06/17 00:46:51;;;;;;;4.97;1.50;;;18.30;93.70;;;;;;5039869;28;20090;-69
2022/06/17 00:49:23;;;;;;;6.13;1.50;;;18.20;93.90;;;;;;5038715;28;20152;-69
2022/06/17 00:51:59;;;;;;;5.93;1.85;;;18.20;93.60;;;;;;5038556;28;20540;-69
2022/06/17 00:54:31;;;;;;;5.38;2.45;;;18.20;93.70;;;;;;5036988;28;20025;-68
2022/06/17 00:56:56;;;;;;;3.25;1.98;;;18.30;93.40;;;;;;5039746;28;20033;-69
2022/06/17 00:59:24;;;;;;;5.35;2.28;;;18.30;93.70;;;;;;5037991;28;20384;-68
2022/06/17 01:02:03;;;;;;;6.18;2.13;;;18.20;94.30;;;;;;5038910;28;20029;-68
2022/06/17 01:04:34;;;;;;;6.75;2.15;;;18.10;94.50;;;;;;5036792;28;20044;-70
2022/06/17 01:07:08;;;;;;;6.30;2.15;;;18.00;94.70;;;;;;5022370;28;20040;-67
2022/06/17 01:12:24;;;;;;;5.60;2.05;;;17.90;95.00;;;;;;5036811;28;20036;-69
2022/06/17 01:14:49;;;;;;;3.33;1.92;;;17.90;95.30;;;;;;5038598;28;20029;-70
2022/06/17 01:17:18;;;;;;;8.32;2.00;;;17.80;95.70;;;;;;5037525;28;20026;-66
2022/06/17 01:20:03;;;;;;;5.00;2.03;;;17.80;96.20;;;;;;5038431;28;20033;-69
2022/06/17 01:22:46;;;;;;;5.15;2.25;;;17.70;96.60;;;;;;5038840;28;20025;-69
2022/06/17 01:25:12;;;;;;;6.18;2.40;;;17.60;96.80;;;;;;5037242;28;20112;-69
2022/06/17 01:27:44;;;;;;;6.03;2.45;;;17.60;97.30;;;;;;5037128;28;20034;-69
2022/06/17 01:30:14;;;;;;;4.43;1.98;;;17.60;96.90;;;;;;5038211;28;20037;-68
2022/06/17 01:32:51;;;;;;;;;;;17.60;97.00;;;;;;5020027;28;20099;-67
2022/06/17 01:35:19;;;;;;;5.35;2.13;;;17.60;97.40;;;;;;5037364;28;19916;-68
2022/06/17 01:37:45;;;;;;;5.28;2.75;;;17.60;97.70;;;;;;5037600;28;20124;-67
2022/06/17 01:40:11;;;;;;;4.63;2.28;;;17.60;98.20;;;;;;5038179;28;20112;-69
2022/06/17 01:42:39;;;;;;;5.28;2.60;;;17.50;98.40;;;;;;5036594;28;20175;-69
2022/06/17 01:45:07;;;;;;;3.97;2.20;;;17.50;98.90;;;;;;5021033;28;20037;-69
2022/06/17 01:47:33;;;;;;;5.43;2.92;;;17.40;99.50;;;;;;5039623;28;20034;-68
2022/06/17 01:50:05;;;;;;;6.55;2.83;;;17.30;99.80;;;;;;5018425;28;20045;-69
2022/06/17 01:52:41;;;;;;;6.75;2.40;;;17.30;99.90;;;;;;5032051;28;20026;-67
2022/06/17 01:55:16;;;;;;;4.70;2.47;;;17.30;99.90;;;;;;5015566;28;20116;-70
2022/06/17 01:57:53;;;;;;;4.38;2.40;;;17.40;99.90;;;;;;5038890;28;20115;-68
2022/06/17 02:00:23;;;;;;;7.85;2.75;;;17.40;99.90;;;;;;5019843;28;20140;-68
2022/06/17 02:02:54;;;;;;;4.28;2.40;;;17.40;99.90;;;;;;5019401;28;20040;-68
2022/06/17 02:05:23;;;;;;;12.10;3.60;;;17.40;99.90;;;;;;5038090;28;20557;-68
2022/06/17 02:07:58;;;;;;;6.10;2.63;;;17.40;99.90;;;;;;5037573;28;20037;-68
2022/06/17 02:10:33;;;;;;;7.53;3.13;;;17.40;99.90;;;;;;5038209;28;20048;-65
2022/06/17 02:13:01;;;;;;;6.57;2.40;;;17.40;99.90;;;;;;5014101;28;20076;-68
2022/06/17 02:15:27;;;;;;;4.68;2.70;;;17.40;99.90;;;;;;5014145;28;20083;-68
2022/06/17 02:17:54;;;;;;;4.53;3.10;;;17.40;99.90;;;;;;5039307;28;20437;-69
2022/06/17 02:20:22;;;;;;;6.43;2.75;;;17.50;99.90;;;;;;5036329;28;20041;-67
2022/06/17 02:22:48;;;;;;;8.25;3.45;;;17.50;99.90;;;;;;5036013;28;20048;-69
2022/06/17 02:25:26;;;;;;;6.82;3.30;;;17.40;99.90;;;;;;5023074;28;20033;-68
2022/06/17 02:27:56;;;;;;;6.95;3.65;;;17.40;99.90;;;;;;5019015;28;20041;-69
2022/06/17 02:30:24;;;;;;;8.85;3.30;;;17.30;99.90;;;;;;5021330;28;20033;-66
2022/06/17 02:32:50;;;;;;;4.90;2.92;;;17.30;99.90;;;;;;5040473;28;20037;-69
2022/06/17 02:35:44;;;;;;;7.05;4.13;;;17.30;99.90;;;;;;5041082;28;20034;-68
2022/06/17 02:38:17;;;;;;;5.93;3.20;;;17.30;99.90;;;;;;5037439;28;20124;-67
2022/06/17 02:40:47;;;;;;;6.28;3.10;;;17.30;99.90;;;;;;5023716;28;20044;-66
2022/06/17 02:43:22;;;;;;;9.77;4.10;;;17.30;99.90;;;;;;5022475;28;20465;-67
2022/06/17 02:45:58;;;;;;;7.75;3.67;;;17.30;99.90;;;;;;5040846;28;20512;-66
2022/06/17 02:48:27;;;;;;;5.57;3.08;;;17.20;99.90;;;;;;5025217;28;20037;-68
2022/06/17 02:50:56;;;;;;;7.45;3.22;;;17.20;99.90;;;;;;5042539;28;20029;-69
2022/06/17 02:53:29;;;;;;;6.45;3.30;;;17.20;99.90;;;;;;5039020;28;20059;-69
2022/06/17 02:55:56;;;;;;;5.90;3.47;;;17.10;99.90;;;;;;5035242;28;20033;-73
2022/06/17 02:58:41;;;;;;;10.55;3.22;;;17.10;99.90;;;;;;5042092;28;20556;-68
2022/06/17 03:01:20;;;;;;;6.63;3.65;;;17.10;99.90;;;;;;5036316;28;20033;-70
2022/06/17 03:03:47;;;;;;;5.80;2.85;;;17.10;99.90;;;;;;5021499;28;20139;-69
2022/06/17 03:06:26;;;;;;;10.25;3.05;;;17.00;99.90;;;;;;5022820;28;20487;-68
2022/06/17 03:08:54;;;;;;;7.57;3.22;;;17.10;99.90;;;;;;5039063;28;20095;-70
2022/06/17 03:11:21;;;;;;;7.97;3.95;;;17.10;99.90;;;;;;5040484;28;20037;-68
2022/06/17 03:14:01;;;;;;;7.40;3.50;;;17.10;99.90;;;;;;5039742;28;20707;-69
2022/06/17 03:16:27;;;;;;;11.23;3.97;;;17.20;99.90;;;;;;5033565;28;20473;-69
2022/06/17 03:18:53;;;;;;;10.75;4.15;;;17.30;99.90;;;;;;5042500;28;20056;-68
2022/06/17 03:21:24;;;;;;;12.25;3.78;;;17.40;99.90;;;;;;5038414;28;20517;-67
2022/06/17 03:24:01;;;;;;;;;;;17.40;99.90;;;;;;5023947;28;20512;-67
2022/06/17 03:26:33;;;;;;;6.25;3.30;;;17.40;99.90;;;;;;5037893;28;19913;-70
2022/06/17 03:29:03;;;;;;;9.48;3.53;;;17.50;99.90;;;;;;5023698;28;20119;-69
2022/06/17 03:31:47;;;;;;;8.85;3.60;;;17.50;99.90;;;;;;5020931;28;20760;-70
2022/06/17 03:34:46;;;;;;;10.13;3.78;;;17.50;99.90;;;;;;5020901;28;20108;-68
2022/06/17 03:37:49;;;;;;;9.00;3.35;;;17.50;99.90;;;;;;5032074;28;20401;-69
2022/06/17 03:40:20;;;;;;;10.77;4.03;;;17.60;99.90;;;;;;5039461;28;20045;-69
2022/06/17 03:42:59;;;;;;;10.43;3.55;;;17.60;99.90;;;;;;5020202;28;20071;-69
2022/06/17 03:45:31;;;;;;;9.65;3.08;;;17.60;99.90;;;;;;5034422;28;20048;-69
2022/06/17 03:48:05;;;;;;;8.02;3.40;;;17.60;99.90;;;;;;5021089;28;20083;-70
2022/06/17 03:50:40;;;;;;;8.40;3.45;;;17.70;99.90;;;;;;5020866;28;20029;-69
2022/06/17 03:53:25;;;;;;;9.95;3.60;;;17.70;99.90;;;;;;5021116;28;20037;-69
2022/06/17 03:55:53;;;;;;;9.25;3.33;;;17.70;99.90;;;;;;5033453;28;20076;-69
2022/06/17 03:58:20;;;;;;;9.00;3.75;;;17.80;99.90;;;;;;5040567;28;20109;-67
2022/06/17 04:00:53;;;;;;;7.53;3.88;;;17.80;99.90;;;;;;5021038;28;20505;-66
2022/06/17 04:03:25;;;;;;;8.80;3.20;;;17.90;99.90;;;;;;5040631;28;20067;-69
2022/06/17 04:06:13;;;;;;;6.85;3.15;;;17.90;99.90;;;;;;5018572;28;20815;-68
2022/06/17 04:09:00;;;;;;;7.88;3.30;;;17.90;99.90;;;;;;5021841;28;20033;-70
2022/06/17 04:11:32;;;;;;;17.10;4.32;;;17.90;99.90;;;;;;5035494;28;20057;-70
2022/06/17 04:14:00;;;;;;;9.95;2.95;;;17.90;99.90;;;;;;5040933;28;20091;-69
2022/06/17 04:16:43;;;;;;;6.85;3.20;;;18.00;99.90;;;;;;5019921;28;20033;-69
2022/06/17 04:19:20;;;;;;;6.50;3.17;;;17.90;99.90;;;;;;5038936;28;20123;-69
2022/06/17 04:21:47;;;;;;;10.45;3.72;;;17.90;99.90;;;;;;5040651;28;20064;-70
2022/06/17 04:24:24;;;;;;;6.00;3.13;;;17.90;99.90;;;;;;5037547;28;20028;-69
2022/06/17 04:26:54;;;;;;;6.93;3.00;;;17.90;99.90;;;;;;5038999;28;20390;-67
2022/06/17 04:29:22;;;;;;;;;;;17.90;99.90;;;;;;5033583;28;20092;-68
2022/06/17 04:31:58;;;;;;;8.32;3.03;;;18.00;99.90;;;;;;5041320;28;19919;-68
2022/06/17 04:34:23;;;;;;;6.90;3.08;;;18.00;99.90;;;;;;5015263;28;20049;-68
2022/06/17 04:37:06;;;;;;;8.23;2.95;;;18.00;99.90;;;;;;5041200;28;20825;-67
2022/06/17 04:39:37;;;;;;;5.97;3.45;;;18.10;99.90;;;;;;5031791;28;20072;-69
2022/06/17 04:42:07;;;;;;;10.18;2.83;;;18.10;99.90;;;;;;5023559;28;20070;-68
2022/06/17 04:44:33;;;;;;;;;;;18.20;99.90;;;;;;5039170;28;20037;-69
2022/06/17 04:47:08;;;;;;;7.43;3.10;;;18.20;99.90;;;;;;5039737;28;19919;-68
2022/06/17 04:49:37;;;;;;;6.30;3.20;;;18.30;99.90;;;;;;5040893;28;20029;-68
2022/06/17 04:52:12;;;;;;;6.25;3.17;;;18.40;99.90;;;;;;5038055;28;20030;-70
2022/06/17 04:54:39;;;;;;;4.88;2.65;;;18.40;99.90;;;;;;5039356;28;20033;-68
2022/06/17 04:57:05;;;;;;;5.68;2.83;;;18.50;99.90;;;;;;5040344;28;20029;-67
2022/06/17 04:59:44;;;;;;;9.15;3.17;;;18.60;99.90;;;;;;5021005;28;20038;-69
2022/06/17 05:02:20;;;;;;;9.32;3.42;;;18.60;99.90;;;;;;5036881;28;20021;-68
2022/06/17 05:04:51;;;;;;;9.13;3.33;;;18.70;99.90;;;;;;5022652;28;20039;-69
2022/06/17 05:07:18;;;;;;;6.55;3.25;;;18.70;99.90;;;;;;5036076;28;20112;-70
2022/06/17 05:09:50;;;;;;;9.70;2.97;;;18.70;99.90;;;;;;5022203;28;20029;-70
2022/06/17 05:12:22;;;;;;;7.28;3.25;;;18.80;99.90;;;;;;5018666;28;20108;-70
2022/06/17 05:14:47;;;;;;;6.03;2.95;;;18.80;99.90;;;;;;5035442;28;20024;-70
2022/06/17 05:17:13;;;;;;;8.70;4.15;;;18.80;99.90;;;;;;5018860;28;20555;-69
2022/06/17 05:19:38;;;;;;;9.43;4.00;;;18.80;99.90;;;;;;5021807;28;20112;-69
2022/06/17 05:22:14;;;;;;;7.68;3.78;;;18.80;99.90;;;;;;5019920;28;20492;-69
2022/06/17 05:24:40;;;;;;;7.30;3.42;;;18.90;99.90;;;;;;5039792;28;20381;-69
2022/06/17 05:27:07;;;;;;;11.68;3.47;;;18.90;99.90;;;;;;5039655;28;20021;-68
2022/06/17 05:29:32;;;;;;;15.55;4.20;;;18.90;99.90;;;;;;5038832;28;20116;-70
2022/06/17 05:31:58;;;;;;;10.80;3.42;;;18.90;99.90;;;;;;5040900;28;20449;-68
2022/06/17 05:34:24;;;;;;;8.13;3.50;;;19.00;99.90;;;;;;5018889;28;20544;-69
2022/06/17 05:36:51;;;;;;;9.90;3.80;;;19.00;99.90;;;;;;5040589;28;20074;-69
2022/06/17 05:39:17;;;;;;;8.13;4.15;;;19.10;99.70;;;;;;5014647;28;20065;-70
2022/06/17 05:41:42;;;;;;;10.13;3.35;;;19.20;99.60;;;;;;5033426;28;20076;-69
2022/06/17 05:44:08;;;;;;;5.78;3.20;;;19.20;99.90;;;;;;5020343;28;20516;-67
2022/06/17 05:46:34;;;;;;;9.40;3.40;;;19.20;99.50;;;;;;5038182;28;20094;-69
2022/06/17 05:48:59;;;;;;;6.75;3.45;;;19.20;99.50;;;;;;5040343;28;20490;-68
2022/06/17 05:51:27;;;;;;;10.05;3.08;;;19.30;99.50;;;;;;5036737;28;20038;-69
2022/06/17 05:53:53;;;;;;;6.85;4.10;;;19.40;99.20;;;;;;5020457;28;20113;-68
2022/06/17 05:56:18;;;;;;;6.45;3.63;;;19.50;99.20;;;;;;5035655;28;20037;-69
2022/06/17 05:58:44;;;;;;;7.82;3.88;;;19.50;99.20;;;;;;5032211;28;20059;-69
2022/06/17 06:01:09;;;;;;;6.35;3.40;;;19.50;98.50;;;;;;5036142;28;20127;-69
2022/06/17 06:03:35;;;;;;;9.10;4.00;;;19.50;98.40;;;;;;5032884;28;20037;-70
2022/06/17 06:06:01;;;;;;;5.30;3.10;;;19.50;98.60;;;;;;5037448;28;20084;-69
2022/06/17 06:08:27;;;;;;;7.32;3.22;;;19.60;98.10;;;;;;5019543;28;20029;-70
2022/06/17 06:10:52;;;;;;;8.23;3.90;;;19.60;98.00;;;;;;5037445;28;20115;-68
2022/06/17 06:13:22;;;;;;;10.30;3.60;;;19.60;98.40;;;;;;5020968;28;20036;-69
2022/06/17 06:15:50;;;;;;;6.73;3.70;;;19.60;98.50;;;;;;5043955;28;20033;-69
2022/06/17 06:18:27;;;;;;;9.05;3.70;;;19.70;98.60;;;;;;5033878;28;20095;-70
2022/06/17 06:20:53;;;;;;;10.32;3.45;;;19.80;98.40;;;;;;5034467;28;20502;-66
2022/06/17 06:23:18;;;;;;;8.18;3.50;;;19.90;98.40;;;;;;5032571;28;20037;-69
2022/06/17 06:25:44;;;;;;;11.77;3.58;;;20.00;98.30;;;;;;5020189;28;20090;-69
2022/06/17 06:28:17;;;;;;;4.82;2.95;;;20.10;97.90;;;;;;5033565;28;20083;-69
2022/06/17 06:30:48;;;;;;;6.97;3.22;;;20.30;97.80;;;;;;5015085;28;20115;-69
2022/06/17 06:33:14;;;;;;;10.77;3.70;;;20.50;97.70;;;;;;5036324;28;20566;-70
2022/06/17 06:35:40;;;;;;;11.25;3.42;;;20.70;97.40;;;;;;5037399;28;20120;-67
2022/06/17 06:38:06;;;;;;;7.00;2.97;;;20.80;96.60;;;;;;5020572;28;20116;-69
2022/06/17 06:40:32;;;;;;;4.72;2.95;;;20.80;96.30;;;;;;5019894;28;20038;-68
2022/06/17 06:42:58;;;;;;;7.85;2.65;;;20.80;96.20;;;;;;5039648;28;20396;-70
2022/06/17 06:45:33;;;;;;;5.13;3.03;;;20.90;96.30;;;;;;5039513;28;20045;-67
2022/06/17 06:48:03;;;;;;;8.68;3.22;;;21.00;96.40;;;;;;5022457;28;20040;-68
2022/06/17 06:50:31;;;;;;;7.90;3.33;;;21.30;95.60;;;;;;5042830;28;20444;-66
2022/06/17 06:52:57;;;;;;;8.57;2.97;;;21.50;95.30;;;;;;5041508;28;20508;-69
2022/06/17 06:55:23;;;;;;;10.55;2.75;;;21.70;95.40;;;;;;5040015;28;20037;-69
2022/06/17 06:58:01;;;;;;;5.95;3.00;;;22.00;95.30;;;;;;5022820;28;20313;-71
2022/06/17 07:00:34;;;;;;;4.63;2.53;;;22.40;95.30;;;;;;5040154;28;20037;-69
2022/06/17 07:03:00;;;;;;;4.55;2.30;;;22.50;93.80;;;;;;5019794;28;20813;-70
2022/06/17 07:05:26;;;;;;;4.03;1.95;;;22.60;94.50;;;;;;5041175;28;20041;-68
2022/06/17 07:07:51;;;;;;;6.07;2.33;;;22.70;94.80;;;;;;5025170;28;20029;-71
2022/06/17 07:10:22;;;;;;;5.85;2.65;;;22.70;94.80;;;;;;5030630;28;20520;-70
2022/06/17 07:12:48;;;;;;;4.47;2.20;;;23.00;95.50;;;;;;5024977;28;20493;-70
2022/06/17 07:15:15;;;;;;;4.93;2.28;;;23.60;94.00;;;;;;5038160;28;20092;-69
2022/06/17 07:17:54;;;;;;;5.55;2.13;;;24.40;92.20;;;;;;5031040;28;20030;-67
2022/06/17 07:20:20;;;;;;;9.02;2.25;;;25.20;91.00;;;;;;5027885;28;20120;-69
2022/06/17 07:22:46;;;;;;;4.70;2.50;;;26.00;90.20;;;;;;5030748;28;20060;-70
2022/06/17 07:25:11;;;;;;;6.65;2.53;;;26.80;85.80;;;;;;5025300;28;20037;-68
2022/06/17 07:27:37;;;;;;;8.73;3.17;;;27.40;85.70;;;;;;5027985;28;20033;-70
2022/06/17 07:30:03;;;;;;;6.00;2.72;;;27.70;82.10;;;;;;5009544;28;20514;-69
2022/06/17 07:32:29;;;;;;;7.78;2.53;;;28.30;81.50;;;;;;5028173;28;20401;-69
2022/06/17 07:34:54;;;;;;;4.78;2.33;;;28.90;81.70;;;;;;5027871;28;20033;-67
2022/06/17 07:40:04;;;;;;;9.10;2.70;;;30.30;75.90;;;;;;5027257;28;20048;-69
2022/06/17 07:42:39;;;;;;;4.80;3.05;;;30.80;77.10;;;;;;5029896;28;20046;-67
2022/06/17 07:45:14;;;;;;;6.15;2.63;;;31.60;70.90;;;;;;5008817;28;20540;-69
2022/06/17 07:47:41;;;;;;;4.35;2.70;;;31.90;69.40;;;;;;5009033;28;20044;-68
2022/06/17 07:50:14;;;;;;;5.82;2.72;;;32.40;71.20;;;;;;5026503;28;20067;-70
2022/06/17 07:52:40;;;;;;;4.47;2.80;;;32.70;69.50;;;;;;5011500;28;20045;-68
2022/06/17 07:55:07;;;;;;;5.25;2.88;;;33.00;67.20;;;;;;5026037;28;20090;-70
2022/06/17 07:57:32;;;;;;;4.53;2.75;;;33.10;65.80;;;;;;5027010;28;20037;-70
2022/06/17 07:59:58;;;;;;;7.68;2.85;;;33.40;65.30;;;;;;5016104;28;20033;-70
2022/06/17 08:02:24;;;;;;;5.88;2.97;;;33.30;66.20;;;;;;5026102;28;20041;-68
2022/06/17 08:04:49;;;;;;;6.07;3.00;;;33.20;65.80;;;;;;5009700;28;20030;-71
2022/06/17 08:07:15;;;;;;;7.57;3.65;;;32.90;65.30;;;;;;5026111;28;20516;-68
2022/06/17 08:09:42;;;;;;;7.25;3.00;;;32.80;65.60;;;;;;5036618;28;20033;-69
2022/06/17 08:12:11;;;;;;;10.38;3.20;;;32.70;65.20;;;;;;5015733;28;20029;-70
2022/06/17 08:14:43;;;;;;;6.45;2.88;;;32.40;64.40;;;;;;5022420;28;20504;-68
2022/06/17 08:17:15;;;;;;;6.13;2.95;;;32.40;64.40;;;;;;5033243;28;20109;-68
2022/06/17 08:19:48;;;;;;;6.07;2.60;;;31.90;65.60;;;;;;5033183;28;20034;-67
2022/06/17 08:22:13;;;;;;;6.30;2.38;;;31.70;64.30;;;;;;5039940;28;20025;-68
2022/06/17 08:24:39;;;;;;;5.03;2.13;;;31.30;65.00;;;;;;5036926;28;20033;-70
2022/06/17 08:27:05;;;;;;;3.55;2.00;;;30.80;65.80;;;;;;5022205;28;20029;-71
2022/06/17 08:29:30;;;;;;;4.35;1.83;;;30.30;64.40;;;;;;5020359;28;20098;-70
2022/06/17 08:32:44;;;;;;;4.53;1.75;;;29.80;67.50;;;;;;5039536;28;20034;-69
2022/06/17 08:34:42;;;;;;;2.40;1.65;;;29.40;66.50;;;;;;5033584;28;20108;-71
2022/06/17 08:37:08;;;;;;;5.60;1.83;;;29.10;68.60;;;;;;5040193;28;20116;-70
2022/06/17 08:39:33;;;;;;;2.42;1.45;;;29.00;68.20;;;;;;5037765;28;20060;-70
2022/06/17 08:42:11;;;;;;;1.85;1.15;;;28.80;69.80;;;;;;5039546;28;20153;-72
2022/06/17 08:44:53;;;;;;;4.13;1.77;;;28.60;70.00;;;;;;5032252;28;20124;-71
2022/06/17 08:47:52;;;;;;;3.30;1.35;;;28.50;69.90;;;;;;5035480;28;20029;-70
2022/06/17 08:50:30;;;;;;;4.55;1.13;;;28.40;68.70;;;;;;5035219;28;20050;-68
2022/06/17 08:53:30;;;;;;;6.43;1.30;;;28.30;70.70;;;;;;5038129;28;20576;-70
2022/06/17 08:56:21;;;;;;;4.05;1.60;;;28.30;69.90;;;;;;5018943;28;20029;-68
2022/06/17 08:59:16;;;;;;;3.55;1.30;;;28.40;71.20;;;;;;5017456;28;20033;-71
2022/06/17 09:02:00;;;;;;;1.92;1.13;;;28.40;72.40;;;;;;5029802;28;20046;-71
2022/06/17 09:04:37;;;;;;;4.30;1.45;;;28.40;71.40;;;;;;5037415;28;20030;-67
2022/06/17 09:07:13;;;;;;;8.98;1.08;;;28.40;69.80;;;;;;5036549;28;20037;-67
2022/06/17 09:10:04;;;;;;;4.30;1.50;;;28.30;69.50;;;;;;5033531;28;20034;-70
2022/06/17 09:12:33;;;;;;;3.83;1.58;;;28.30;71.00;;;;;;5039595;28;20064;-69
2022/06/17 09:15:10;;;;;;;5.65;1.25;;;28.20;69.80;;;;;;5037131;28;20528;-71
2022/06/17 09:18:01;;;;;;;5.20;1.27;;;28.30;69.70;;;;;;5031385;28;20033;-71
2022/06/17 09:20:34;;;;;;;6.13;1.30;;;28.40;71.10;;;;;;5038004;28;20036;-69
2022/06/17 09:23:02;;;;;;;4.25;1.60;;;28.20;71.90;;;;;;5018606;28;20037;-70
2022/06/17 09:25:38;;;;;;;3.58;1.33;;;28.20;71.40;;;;;;5039287;28;20425;-71
2022/06/17 09:28:08;;;;;;;3.78;1.40;;;28.30;69.10;;;;;;5032084;28;20044;-71
2022/06/17 09:30:43;;;;;;;6.68;1.55;;;28.30;70.20;;;;;;5021631;28;20044;-69
2022/06/17 09:33:21;;;;;;;3.63;1.13;;;28.40;72.00;;;;;;5032011;28;20448;-71
2022/06/17 09:36:22;;;;;;;4.60;0.90;;;28.40;71.40;;;;;;5038200;28;20033;-72
2022/06/17 09:39:00;;;;;;;6.32;1.50;;;28.40;70.40;;;;;;5000537;28;20136;-72
2022/06/17 09:41:47;;;;;;;2.15;1.10;;;28.40;69.40;;;;;;5036209;28;20177;-70
2022/06/17 09:44:19;;;;;;;2.10;1.00;;;28.40;68.70;;;;;;5033079;28;20026;-70
2022/06/17 09:46:53;;;;;;;1.77;0.95;;;28.30;69.80;;;;;;5038627;28;20037;-72
2022/06/17 09:49:24;;;;;;;5.55;1.25;;;28.40;70.90;;;;;;5037211;28;20406;-71
2022/06/17 09:52:05;;;;;;;7.70;1.05;;;28.50;68.50;;;;;;5037732;28;20036;-72
2022/06/17 09:55:16;;;;;;;2.15;1.13;;;28.60;68.90;;;;;;5031711;28;20120;-71
2022/06/17 09:58:00;;;;;;;2.42;1.13;;;28.60;69.50;;;;;;5034164;28;20026;-70
2022/06/17 10:00:30;;;;;;;2.30;1.05;;;28.60;70.50;;;;;;5036033;28;20072;-70
2022/06/17 10:03:25;;;;;;;3.78;1.58;;;28.50;68.00;;;;;;5038542;28;20057;-70
2022/06/17 10:06:09;;;;;;;4.47;1.65;;;28.60;71.30;;;;;;5036722;28;20034;-71
2022/06/17 10:09:02;;;;;;;3.53;1.10;;;28.70;70.00;;;;;;5032132;28;20045;-71
2022/06/17 10:11:49;;;;;;;4.78;1.67;;;28.80;67.70;;;;;;5039139;28;20044;-69
2022/06/17 10:14:42;;;;;;;4.75;1.65;;;28.90;68.50;;;;;;5016541;28;20053;-72
2022/06/17 10:20:16;;;;;;;3.03;1.45;;;28.90;67.00;;;;;;5032250;28;20131;-69
2022/06/17 10:23:04;;;;;;;2.38;0.85;;;28.90;67.30;;;;;;5043880;28;20099;-71
2022/06/17 10:26:05;;;;;;;3.92;1.30;;;28.90;66.40;;;;;;5032515;28;20061;-71
2022/06/17 10:28:40;;;;;;;3.65;1.77;;;29.00;67.70;;;;;;5031906;28;20120;-71
2022/06/17 10:31:41;;;;;;;3.03;1.13;;;29.00;66.30;;;;;;5032301;28;20045;-71
2022/06/17 10:34:11;;;;;;;2.15;0.93;;;29.10;63.90;;;;;;5031369;28;20045;-71
2022/06/17 10:36:37;;;;;;;2.38;1.23;;;29.00;65.40;;;;;;5021014;28;20044;-71
2022/06/17 10:39:03;;;;;;;6.70;1.50;;;28.90;64.30;;;;;;5035135;28;20032;-71
2022/06/17 10:41:31;;;;;;;6.57;1.95;;;29.00;68.50;;;;;;5017607;28;20038;-70
2022/06/17 10:43:57;;;;;;;4.00;1.10;;;29.00;64.20;;;;;;5039073;28;20063;-71
2022/06/17 10:46:26;;;;;;;6.10;1.30;;;29.00;65.20;;;;;;5035566;28;20123;-72
2022/06/17 10:49:02;;;;;;;1.95;0.80;;;28.90;65.90;;;;;;5020566;28;20026;-72
2022/06/17 10:51:29;;;;;;;7.78;1.75;;;28.90;67.20;;;;;;5031901;28;20095;-70
2022/06/17 10:54:13;;;;;;;12.30;1.55;;;28.90;65.80;;;;;;5042325;28;20063;-71
2022/06/17 10:57:04;;;;;;;3.50;0.90;;;29.00;64.30;;;;;;5036976;28;20042;-69
2022/06/17 10:59:42;;;;;;;4.80;1.15;;;29.10;64.70;;;;;;5035332;28;20638;-71
2022/06/17 11:02:24;;;;;;;5.32;0.90;;;29.20;64.70;;;;;;5035596;28;20040;-72
2022/06/17 11:04:54;;;;;;;1.50;0.90;;;29.30;66.00;;;;;;5039545;28;20033;-72
2022/06/17 11:07:49;;;;;;;2.28;0.88;;;29.30;65.60;;;;;;5040230;28;20061;-72
2022/06/17 11:10:15;;;;;;;5.95;1.67;;;29.40;64.60;;;;;;5038546;28;20076;-71
2022/06/17 11:12:52;;;;;;;2.95;1.00;;;29.40;63.30;;;;;;5022993;28;20116;-69
2022/06/17 11:15:22;;;;;;;3.67;1.08;;;29.30;64.70;;;;;;5040342;28;20043;-72
2022/06/17 11:17:51;;;;;;;3.40;1.10;;;29.30;65.40;;;;;;5039617;28;20022;-72
2022/06/17 11:20:24;;;;;;;1.70;0.57;;;29.30;65.70;;;;;;5022455;28;20033;-71
2022/06/17 11:22:51;;;;;;;5.20;1.40;;;29.40;66.40;;;;;;5020858;28;20021;-71
2022/06/17 11:25:27;;;;;;;3.40;0.88;;;29.40;66.00;;;;;;5040805;28;20032;-71
2022/06/17 11:27:57;;;;;;;13.50;1.58;;;29.30;64.40;;;;;;5039193;28;20083;-72
2022/06/17 11:30:37;;;;;;;9.43;1.15;;;29.30;63.90;;;;;;5040554;28;20044;-70
2022/06/17 11:33:19;;;;;;;3.88;0.98;;;29.40;63.20;;;;;;5035436;28;20037;-71
2022/06/17 11:35:45;;;;;;;3.90;1.00;;;29.40;62.10;;;;;;5039685;28;20596;-69
2022/06/17 11:38:13;;;;;;;1.48;0.90;;;29.40;62.50;;;;;;5038919;28;20029;-71
2022/06/17 11:40:57;;;;;;;4.45;1.17;;;29.30;62.70;;;;;;5040431;28;20110;-71
2022/06/17 11:43:40;;;;;;;3.65;1.42;;;29.30;65.10;;;;;;5040573;28;20420;-71
2022/06/17 11:46:19;;;;;;;3.63;0.82;;;29.20;60.50;;;;;;5036144;28;20179;-71
2022/06/17 11:48:53;;;;;;;1.57;0.70;;;29.30;62.00;;;;;;5039919;28;20266;-70
2022/06/17 11:51:34;;;;;;;4.25;1.50;;;29.20;59.50;;;;;;5040008;28;20037;-72
2022/06/17 11:54:04;;;;;;;1.63;0.82;;;29.30;62.30;;;;;;5034778;28;20037;-71
2022/06/17 11:56:39;;;;;;;4.18;0.77;;;29.30;64.20;;;;;;5041268;28;20081;-70
2022/06/17 11:59:15;;;;;;;1.55;0.60;;;29.40;62.60;;;;;;5038391;28;20080;-71
2022/06/17 12:01:47;;;;;;;3.17;0.80;;;29.50;63.90;;;;;;5021254;28;20036;-71
2022/06/17 12:04:32;;;;;;;9.05;0.93;;;29.40;63.00;;;;;;5020715;28;20501;-70
2022/06/17 12:06:58;;;;;;;2.00;0.55;;;29.40;63.00;;;;;;5016771;28;20075;-71
2022/06/17 12:09:37;;;;;;;1.20;0.43;;;29.40;65.40;;;;;;5031536;28;20034;-71
2022/06/17 12:12:10;;;;;;;3.22;0.60;;;29.30;61.50;;;;;;5035263;28;20555;-71
2022/06/17 12:14:41;;;;;;;1.67;0.57;;;29.30;63.80;;;;;;5022120;28;20500;-71
2022/06/17 12:17:14;;;;;;;5.00;0.63;;;29.20;65.10;;;;;;5038304;28;20045;-68
2022/06/17 12:19:40;;;;;;;4.57;1.48;;;29.20;65.80;;;;;;5039984;28;20168;-69
2022/06/17 12:22:16;;;;;;;1.42;0.45;;;29.30;64.00;;;;;;5020359;28;20474;-67
2022/06/17 12:24:56;;;;;;;4.35;0.85;;;29.50;63.60;;;;;;5039408;28;20033;-68
2022/06/17 12:27:27;;;;;;;;;;;29.60;60.80;;;;;;5041004;28;20064;-68
2022/06/17 12:29:53;;;;;;;3.88;1.13;;;29.70;62.50;;;;;;5033789;28;20019;-71
2022/06/17 12:32:33;;;;;;;1.65;0.65;;;29.70;61.80;;;;;;5039698;28;20124;-71
2022/06/17 12:35:25;;;;;;;2.67;0.60;;;29.60;60.20;;;;;;5016327;28;20036;-71
2022/06/17 12:37:58;;;;;;;2.95;0.90;;;29.60;63.60;;;;;;5036832;28;20030;-71
2022/06/17 12:40:52;;;;;;;2.85;1.13;;;29.50;62.50;;;;;;5015014;28;20041;-71
2022/06/17 12:44:01;;;;;;;3.10;0.60;;;29.40;62.00;;;;;;5037203;28;20485;-72
2022/06/17 12:46:43;;;;;;;;;;;29.20;64.80;;;;;;4939972;28;20063;-71
2022/06/17 12:55:43;;;;;;;1.85;0.82;;;29.00;63.10;;;;;;4996493;28;20524;-72
2022/06/17 12:58:45;;;;;;;1.10;0.40;;;29.00;62.90;;;;;;5016498;28;20045;-71
2022/06/17 13:01:20;;;;;;;0.93;0.40;;;29.00;63.70;;;;;;5035569;28;20528;-71
2022/06/17 13:04:10;;;;;;;4.00;0.73;;;29.00;63.30;;;;;;5016247;28;20524;-68
2022/06/17 13:07:01;;;;;;;1.73;0.70;;;29.10;62.60;;;;;;5022846;28;20037;-69
2022/06/17 13:09:50;;;;;;;1.13;0.40;;;29.10;60.80;;;;;;5034503;28;20563;-69
2022/06/17 13:12:36;;;;;;;0.98;0.40;;;29.10;61.70;;;;;;5035577;28;20034;-68
2022/06/17 13:15:35;;;;;;;1.67;0.60;;;29.00;61.10;;;;;;5035517;28;20052;-67
2022/06/17 13:18:12;;;;;;;5.80;0.52;;;28.90;62.30;;;;;;5021471;28;20037;-67
2022/06/17 13:20:53;;;;;;;2.88;0.75;;;29.00;62.30;;;;;;5018739;28;20041;-69
2022/06/17 13:23:40;;;;;;;1.35;0.60;;;29.00;61.20;;;;;;5004856;28;20505;-68
2022/06/17 13:26:19;;;;;;;3.83;0.60;;;29.00;60.90;;;;;;5025207;28;20038;-69
2022/06/17 13:28:50;;;;;;;1.52;0.63;;;29.10;62.30;;;;;;5016919;28;20037;-67
2022/06/17 13:31:51;;;;;;;0.98;0.63;;;29.10;62.30;;;;;;5024097;28;20033;-67
2022/06/17 13:34:29;;;;;;;1.70;0.60;;;29.20;63.10;;;;;;4991175;28;20084;-67
2022/06/17 13:37:03;;;;;;;3.72;0.60;;;29.10;61.30;;;;;;5024423;28;20171;-72